Time;durP1;ratioP1;P1;durP2;ratioP2;P2;SDS_P1;SDS_P2;PMS_P1;PMS_P2;Temp;Humidity;BMP_temperature;BMP_pressure;BME280_temperature;BME280_humidity;BME280_pressure;Samples;Min_cycle;Max_cycle;Signal;HPM_P1;HPM_P2
2022/11/30 00:01:31;;;;;;;1.20;1.07;;;;;;;8.64;100.00;95285.06;5113682;28;20428;-53
2022/11/30 00:03:59;;;;;;;6.43;0.90;;;;;;;8.54;100.00;95271.78;5113494;28;20561;-53
2022/11/30 00:06:29;;;;;;;1.20;1.20;;;;;;;8.77;100.00;95346.16;5113504;28;20436;-53
2022/11/30 00:08:58;;;;;;;2.00;1.90;;;;;;;8.89;100.00;95348.59;5112231;28;20429;-53
2022/11/30 00:11:28;;;;;;;2.00;1.37;;;;;;;8.56;100.00;95302.19;5113041;28;20471;-53
2022/11/30 00:13:56;;;;;;;4.23;3.90;;;;;;;8.97;100.00;95360.50;5112982;27;20467;-53
2022/11/30 00:16:26;;;;;;;1.10;1.10;;;;;;;9.28;100.00;95356.94;5113085;28;20452;-53
2022/11/30 00:18:54;;;;;;;0.60;0.60;;;;;;;9.49;100.00;95359.38;5112894;28;20427;-53
2022/11/30 00:21:22;;;;;;;3.70;1.80;;;;;;;9.54;100.00;95351.44;5112946;28;20515;-53
2022/11/30 00:23:52;;;;;;;2.53;2.43;;;;;;;9.09;100.00;95369.81;5112750;28;20428;-53
2022/11/30 00:26:21;;;;;;;1.57;1.50;;;;;;;8.17;100.00;95208.50;5113063;28;20431;-53
2022/11/30 00:28:50;;;;;;;0.87;0.87;;;;;;;9.06;100.00;95377.50;5112220;28;20474;-53
2022/11/30 00:31:19;;;;;;;2.40;2.10;;;;;;;9.12;100.00;95379.88;5113089;28;20424;-53
2022/11/30 00:33:47;;;;;;;1.10;1.10;;;;;;;9.33;100.00;95351.69;5112557;28;20540;-53
2022/11/30 00:36:17;;;;;;;0.97;0.97;;;;;;;9.45;100.00;95376.84;5112458;28;20946;-53
2022/11/30 00:38:46;;;;;;;1.20;1.20;;;;;;;9.73;100.00;95375.59;5112908;28;20435;-53
2022/11/30 00:41:16;;;;;;;0.80;0.70;;;;;;;9.78;100.00;95367.66;5112718;28;20922;-53
2022/11/30 00:43:45;;;;;;;0.60;0.60;;;;;;;9.57;100.00;95366.00;5111928;27;20432;-53
2022/11/30 00:46:14;;;;;;;0.93;0.60;;;;;;;9.07;100.00;95357.91;5112716;28;20464;-53
2022/11/30 00:48:42;;;;;;;2.30;2.10;;;;;;;9.33;100.00;95364.91;5112424;28;20806;-53
2022/11/30 00:51:12;;;;;;;1.00;0.90;;;;;;;9.61;100.00;95367.09;5112393;28;20519;-53
2022/11/30 00:53:41;;;;;;;1.10;1.00;;;;;;;9.29;100.00;95358.53;5112702;27;20464;-53
2022/11/30 00:56:10;;;;;;;0.43;0.40;;;;;;;9.36;100.00;95361.75;5112389;28;20420;-53
2022/11/30 00:58:40;;;;;;;1.17;1.07;;;;;;;9.38;100.00;95367.56;5112264;28;20511;-53
2022/11/30 01:01:09;;;;;;;1.80;1.57;;;;;;;9.45;100.00;95355.69;5112700;28;20431;-53
2022/11/30 01:03:37;;;;;;;0.50;0.50;;;;;;;9.59;100.00;95343.53;5112494;28;20427;-53
2022/11/30 01:06:08;;;;;;;0.60;0.60;;;;;;;9.47;100.00;95344.81;5112688;28;20831;-53
2022/11/30 01:08:36;;;;;;;0.57;0.57;;;;;;;9.29;100.00;95326.78;5112722;28;20499;-53
2022/11/30 01:11:08;;;;;;;0.93;0.60;;;;;;;9.29;100.00;95337.38;5112304;28;20416;-53
2022/11/30 01:13:36;;;;;;;2.00;1.13;;;;;;;8.46;100.00;95275.72;5112641;28;20430;-53
2022/11/30 01:16:11;;;;;;;0.77;0.77;;;;;;;8.43;100.00;95312.41;5112457;28;20413;-54
2022/11/30 01:18:40;;;;;;;0.90;0.90;;;;;;;8.86;100.00;95343.81;5112524;28;20420;-53
2022/11/30 01:21:10;;;;;;;3.43;0.70;;;;;;;9.23;100.00;95341.88;5112536;28;20411;-53
2022/11/30 01:23:39;;;;;;;0.93;0.90;;;;;;;8.65;100.00;95223.25;5112135;28;20436;-53
2022/11/30 01:26:07;;;;;;;0.60;0.37;;;;;;;9.56;100.00;95337.97;5112305;28;20471;-54
2022/11/30 01:28:36;;;;;;;0.40;0.40;;;;;;;9.41;100.00;95309.63;5111783;28;20477;-53
2022/11/30 01:31:07;;;;;;;0.70;0.40;;;;;;;9.35;100.00;95331.84;5111095;28;20789;-53
2022/11/30 01:33:36;;;;;;;0.50;0.50;;;;;;;9.00;100.00;95330.94;5112156;28;20422;-53
2022/11/30 01:36:07;;;;;;;0.30;0.20;;;;;;;8.81;100.00;95328.72;5112424;28;20420;-53
2022/11/30 01:38:37;;;;;;;1.37;1.27;;;;;;;8.27;100.00;95330.78;5112477;28;20507;-53
2022/11/30 01:41:07;;;;;;;0.30;0.20;;;;;;;8.46;100.00;95325.09;5112266;28;20435;-53
2022/11/30 01:43:41;;;;;;;0.90;0.90;;;;;;;8.39;100.00;95338.53;5111841;28;20569;-53
2022/11/30 01:46:34;;;;;;;0.70;0.70;;;;;;;8.64;100.00;95322.03;5112029;28;20470;-53
2022/11/30 01:49:14;;;;;;;0.73;0.73;;;;;;;8.41;100.00;95317.94;5112023;28;20447;-53
2022/11/30 01:51:46;;;;;;;0.60;0.60;;;;;;;8.49;100.00;95333.31;5112115;28;20810;-53
2022/11/30 01:54:16;;;;;;;0.30;0.30;;;;;;;8.69;100.00;95336.06;5111271;28;20555;-53
2022/11/30 01:56:49;;;;;;;0.50;0.50;;;;;;;8.56;100.00;95296.91;5111150;28;20454;-53
2022/11/30 01:59:20;;;;;;;0.40;0.27;;;;;;;9.00;100.00;95338.84;5111855;28;20900;-53
2022/11/30 02:01:49;;;;;;;0.40;0.30;;;;;;;8.81;100.00;95248.66;5111943;28;20464;-53
2022/11/30 02:04:22;;;;;;;0.40;0.30;;;;;;;9.22;100.00;95278.63;5112287;28;20859;-53
2022/11/30 02:06:51;;;;;;;0.43;0.40;;;;;;;9.57;100.00;95329.78;5111876;28;20475;-53
2022/11/30 02:09:21;;;;;;;0.40;0.30;;;;;;;9.57;100.00;95328.97;5111370;28;20519;-53
2022/11/30 02:11:50;;;;;;;0.83;0.70;;;;;;;9.31;100.00;95338.69;5111794;28;20455;-53
2022/11/30 02:14:29;;;;;;;0.87;0.40;;;;;;;9.04;100.00;95281.75;5113557;28;20758;-53
2022/11/30 02:17:08;;;;;;;0.50;0.50;;;;;;;9.41;100.00;95330.78;5115569;28;20427;-54
2022/11/30 02:20:09;;;;;;;3.30;0.50;;;;;;;9.36;100.00;95267.28;5115630;28;20431;-54
2022/11/30 02:22:50;;;;;;;0.30;0.20;;;;;;;9.53;100.00;95317.34;5089830;28;20436;-54
2022/11/30 02:25:26;;;;;;;0.40;0.40;;;;;;;9.21;100.00;95327.31;5115483;28;20474;-54
2022/11/30 02:28:13;;;;;;;0.37;0.30;;;;;;;9.06;100.00;95328.03;5115514;28;20508;-54
2022/11/30 02:30:46;;;;;;;0.40;0.40;;;;;;;9.36;100.00;95335.28;5115721;28;20518;-54
2022/11/30 02:33:18;;;;;;;0.40;0.40;;;;;;;9.45;100.00;95326.56;5115461;28;20477;-54
2022/11/30 02:35:51;;;;;;;0.80;0.80;;;;;;;9.62;100.00;95318.41;5115474;28;20450;-54
2022/11/30 02:38:24;;;;;;;0.50;0.40;;;;;;;9.46;100.00;95328.16;5115539;28;21029;-53
2022/11/30 02:40:52;;;;;;;0.40;0.40;;;;;;;9.34;100.00;95324.16;5115360;28;20435;-53
2022/11/30 02:43:24;;;;;;;0.40;0.37;;;;;;;9.40;100.00;95325.75;5115100;28;20499;-54
2022/11/30 02:46:05;;;;;;;0.40;0.37;;;;;;;9.18;100.00;95253.78;5115258;28;20502;-54
2022/11/30 02:48:43;;;;;;;0.40;0.33;;;;;;;9.43;100.00;95338.47;5115283;28;20438;-54
2022/11/30 02:51:17;;;;;;;0.53;0.53;;;;;;;9.08;100.00;95323.31;5115097;28;20438;-54
2022/11/30 02:53:47;;;;;;;0.60;0.40;;;;;;;9.48;100.00;95331.34;5115267;28;20415;-54
2022/11/30 02:56:15;;;;;;;0.40;0.40;;;;;;;9.41;100.00;95336.06;5114845;28;20950;-52
2022/11/30 02:58:43;;;;;;;1.00;1.00;;;;;;;9.64;100.00;95328.72;5114941;28;20932;-55
2022/11/30 03:01:13;;;;;;;0.50;0.50;;;;;;;9.61;100.00;95327.41;5114689;28;20436;-53
2022/11/30 03:03:43;;;;;;;0.57;0.50;;;;;;;9.74;100.00;95323.44;5114607;28;20434;-54
2022/11/30 03:06:12;;;;;;;0.50;0.30;;;;;;;9.76;100.00;95331.91;5114645;28;20997;-54
2022/11/30 03:08:40;;;;;;;0.60;0.50;;;;;;;9.87;100.00;95325.56;5114043;28;20499;-54
2022/11/30 03:11:08;;;;;;;0.30;0.20;;;;;;;9.91;100.00;95332.72;5114558;28;20431;-54
2022/11/30 03:13:36;;;;;;;1.47;0.50;;;;;;;9.99;100.00;95320.81;5114496;28;20463;-54
2022/11/30 03:16:08;;;;;;;0.40;0.30;;;;;;;9.95;100.00;95323.19;5114773;28;20438;-54
2022/11/30 03:18:38;;;;;;;0.43;0.43;;;;;;;9.99;100.00;95334.81;5114431;28;20524;-55
2022/11/30 03:21:07;;;;;;;0.50;0.40;;;;;;;9.85;100.00;95323.19;5114758;28;20420;-54
2022/11/30 03:23:36;;;;;;;1.30;1.20;;;;;;;9.88;100.00;95333.25;5113396;28;20435;-54
2022/11/30 03:26:06;;;;;;;0.40;0.30;;;;;;;9.80;100.00;95312.59;5114178;28;20478;-54
2022/11/30 03:28:35;;;;;;;0.90;0.87;;;;;;;9.72;100.00;95323.69;5114356;28;20471;-54
2022/11/30 03:31:04;;;;;;;0.50;0.40;;;;;;;9.81;100.00;95322.13;5114525;28;20431;-54
2022/11/30 03:33:32;;;;;;;0.83;0.83;;;;;;;9.76;100.00;95319.47;5114164;28;20899;-54
2022/11/30 03:36:04;;;;;;;1.53;1.20;;;;;;;9.30;100.00;95325.75;5114037;28;20958;-54
2022/11/30 03:38:33;;;;;;;0.70;0.70;;;;;;;9.47;100.00;95323.66;5114442;28;20440;-54
2022/11/30 03:41:02;;;;;;;0.70;0.70;;;;;;;9.67;100.00;95326.34;5114103;28;20917;-54
2022/11/30 03:43:31;;;;;;;0.40;0.20;;;;;;;9.62;100.00;95322.88;5113934;28;20527;-54
2022/11/30 03:45:59;;;;;;;1.30;0.87;;;;;;;9.72;100.00;95310.47;5114232;28;20479;-54
2022/11/30 03:48:29;;;;;;;0.40;0.30;;;;;;;9.82;100.00;95325.56;5113747;28;20436;-54
2022/11/30 03:50:58;;;;;;;0.57;0.57;;;;;;;9.95;100.00;95327.69;5113755;28;20428;-54
2022/11/30 03:53:27;;;;;;;6.00;1.03;;;;;;;10.02;100.00;95322.91;5113856;28;20936;-54
2022/11/30 03:55:57;;;;;;;2.83;0.97;;;;;;;10.04;100.00;95315.53;5113697;28;20710;-54
2022/11/30 03:58:26;;;;;;;0.90;0.47;;;;;;;10.13;100.00;95327.19;5113257;28;20439;-54
2022/11/30 04:01:01;;;;;;;0.93;0.93;;;;;;;10.07;100.00;95328.22;5113463;28;20432;-54
2022/11/30 04:03:30;;;;;;;0.60;0.60;;;;;;;9.97;100.00;95326.34;5113178;28;20860;-54
2022/11/30 04:05:58;;;;;;;4.10;0.60;;;;;;;9.95;100.00;95322.38;5113538;27;20469;-54
2022/11/30 04:08:28;;;;;;;0.67;0.67;;;;;;;9.88;100.00;95329.81;5113281;28;20428;-54
2022/11/30 04:10:59;;;;;;;0.50;0.50;;;;;;;9.33;100.00;95338.44;5113496;28;20459;-54
2022/11/30 04:13:28;;;;;;;4.53;1.07;;;;;;;9.66;100.00;95326.63;5112343;28;20440;-54
2022/11/30 04:15:57;;;;;;;1.03;0.77;;;;;;;9.83;100.00;95324.50;5113193;28;20975;-54
2022/11/30 04:18:28;;;;;;;0.30;0.30;;;;;;;9.73;100.00;95316.56;5113031;28;20469;-54
2022/11/30 04:20:57;;;;;;;0.43;0.43;;;;;;;9.87;100.00;95315.78;5113050;28;20416;-54
2022/11/30 04:23:31;;;;;;;0.40;0.30;;;;;;;9.98;100.00;95330.59;5112938;28;20420;-54
2022/11/30 04:25:59;;;;;;;0.30;0.20;;;;;;;10.05;100.00;95325.03;5112750;28;20931;-54
2022/11/30 04:28:27;;;;;;;0.30;0.30;;;;;;;9.54;100.00;95324.19;5112675;28;20472;-54
2022/11/30 04:30:56;;;;;;;0.40;0.30;;;;;;;9.90;100.00;95327.69;5113194;28;20416;-54
2022/11/30 04:33:24;;;;;;;0.43;0.43;;;;;;;9.96;100.00;95327.44;5112123;28;20527;-54
2022/11/30 04:35:56;;;;;;;0.77;0.77;;;;;;;9.39;100.00;95330.25;5112219;28;20428;-54
2022/11/30 04:38:27;;;;;;;0.90;0.90;;;;;;;8.99;100.00;95324.03;5111967;28;20451;-54
2022/11/30 04:40:56;;;;;;;0.57;0.57;;;;;;;9.31;100.00;95319.41;5113258;28;20432;-54
2022/11/30 04:43:25;;;;;;;0.60;0.60;;;;;;;9.08;100.00;95290.78;5112564;28;20538;-54
2022/11/30 04:45:53;;;;;;;0.50;0.50;;;;;;;8.74;100.00;95322.09;5112791;28;20440;-54
2022/11/30 04:48:21;;;;;;;1.03;1.03;;;;;;;8.78;100.00;95337.16;5112413;28;20558;-54
2022/11/30 04:50:50;;;;;;;0.87;0.83;;;;;;;8.27;100.00;95322.88;5112603;28;20424;-54
2022/11/30 04:53:18;;;;;;;1.07;1.07;;;;;;;8.28;100.00;95284.88;5112600;28;21007;-54
2022/11/30 04:55:47;;;;;;;5.97;0.70;;;;;;;9.02;100.00;95328.81;5112587;28;20430;-54
2022/11/30 04:58:16;;;;;;;0.63;0.63;;;;;;;9.16;100.00;95330.72;5112440;28;20518;-54
2022/11/30 05:00:44;;;;;;;1.40;0.80;;;;;;;9.08;100.00;95330.44;5112693;28;20454;-54
2022/11/30 05:03:12;;;;;;;0.80;0.80;;;;;;;9.14;100.00;95346.03;5112246;28;20434;-53
2022/11/30 05:05:41;;;;;;;2.43;0.80;;;;;;;9.01;100.00;95348.34;5112757;28;20461;-54
2022/11/30 05:08:09;;;;;;;1.37;1.30;;;;;;;9.43;100.00;95341.91;5112094;28;20479;-53
2022/11/30 05:10:37;;;;;;;1.83;1.73;;;;;;;9.60;100.00;95339.03;5112620;28;20433;-55
2022/11/30 05:13:07;;;;;;;1.93;1.47;;;;;;;9.38;100.00;95341.91;5112410;28;20428;-54
2022/11/30 05:15:35;;;;;;;1.03;0.93;;;;;;;9.38;100.00;95335.81;5112510;28;20804;-54
2022/11/30 05:18:05;;;;;;;1.63;0.87;;;;;;;9.37;100.00;95340.31;5112234;28;20995;-54
2022/11/30 05:20:33;;;;;;;2.67;2.33;;;;;;;9.33;100.00;95346.38;5112234;28;20420;-54
2022/11/30 05:23:01;;;;;;;4.83;1.23;;;;;;;9.42;100.00;95342.16;5112182;28;20950;-54
2022/11/30 05:25:30;;;;;;;1.00;0.70;;;;;;;9.50;100.00;95344.31;5111934;28;20428;-54
2022/11/30 05:27:58;;;;;;;1.07;1.07;;;;;;;9.43;100.00;95344.56;5111450;28;20501;-54
2022/11/30 05:30:28;;;;;;;2.40;2.20;;;;;;;8.90;100.00;95350.19;5111898;28;20435;-54
2022/11/30 05:32:56;;;;;;;0.50;0.50;;;;;;;9.13;100.00;95356.91;5112040;28;20527;-54
2022/11/30 05:35:25;;;;;;;1.40;1.40;;;;;;;9.31;100.00;95351.16;5111957;28;20434;-54
2022/11/30 05:37:53;;;;;;;1.40;1.40;;;;;;;9.31;100.00;95349.28;5111978;28;20439;-54
2022/11/30 05:40:21;;;;;;;0.50;0.50;;;;;;;9.42;100.00;95352.75;5112214;28;20943;-54
2022/11/30 05:42:55;;;;;;;1.03;1.03;;;;;;;9.44;100.00;95351.44;5112038;28;20428;-54
2022/11/30 05:45:23;;;;;;;1.60;1.50;;;;;;;9.55;100.00;95363.63;5111733;28;20915;-54
2022/11/30 05:47:53;;;;;;;2.77;1.57;;;;;;;9.13;100.00;95346.31;5111634;28;20884;-54
2022/11/30 05:50:21;;;;;;;1.00;1.00;;;;;;;9.30;100.00;95371.50;5114969;28;20428;-54
2022/11/30 05:52:52;;;;;;;1.47;1.43;;;;;;;9.52;100.00;95361.50;5115762;28;20569;-54
2022/11/30 05:55:20;;;;;;;1.30;1.30;;;;;;;9.61;100.00;95351.22;5115998;28;20514;-54
2022/11/30 05:57:49;;;;;;;1.10;1.10;;;;;;;9.89;100.00;95365.81;5115759;28;20452;-54
2022/11/30 06:00:18;;;;;;;0.60;0.60;;;;;;;9.91;100.00;95367.16;5115430;28;20527;-54
2022/11/30 06:02:46;;;;;;;3.13;2.80;;;;;;;9.21;100.00;95322.03;5114883;28;20468;-54
2022/11/30 06:05:17;;;;;;;0.77;0.77;;;;;;;9.15;100.00;95379.38;5115034;28;20966;-54
2022/11/30 06:07:45;;;;;;;1.13;1.13;;;;;;;9.17;100.00;95382.56;5115896;28;20475;-54
2022/11/30 06:10:13;;;;;;;0.60;0.60;;;;;;;9.36;100.00;95380.25;5115909;28;20451;-54
2022/11/30 06:12:42;;;;;;;0.67;0.40;;;;;;;9.31;100.00;95365.13;5115557;28;20461;-53
2022/11/30 06:15:11;;;;;;;0.60;0.40;;;;;;;9.54;100.00;95387.69;5114761;28;20422;-53
2022/11/30 06:17:39;;;;;;;0.70;0.70;;;;;;;9.64;100.00;95382.44;5115390;28;20535;-52
2022/11/30 06:20:08;;;;;;;0.60;0.60;;;;;;;9.75;100.00;95381.41;5114463;27;20817;-52
2022/11/30 06:22:38;;;;;;;1.53;1.43;;;;;;;9.83;100.00;95390.69;5114582;28;20431;-53
2022/11/30 06:25:07;;;;;;;1.87;1.27;;;;;;;9.94;100.00;95379.84;5114659;28;20438;-53
2022/11/30 06:27:35;;;;;;;0.53;0.50;;;;;;;9.99;100.00;95384.38;5114170;28;21089;-53
2022/11/30 06:30:04;;;;;;;7.20;1.27;;;;;;;9.96;100.00;95375.09;5114340;28;20443;-53
2022/11/30 06:32:32;;;;;;;0.50;0.50;;;;;;;9.83;100.00;95391.47;5114328;28;20503;-54
2022/11/30 06:35:00;;;;;;;0.60;0.60;;;;;;;9.87;100.00;95381.16;5114681;28;20428;-53
2022/11/30 06:37:29;;;;;;;3.10;1.50;;;;;;;9.90;100.00;95376.13;5114320;28;20428;-54
2022/11/30 06:39:58;;;;;;;1.03;0.87;;;;;;;10.02;100.00;95391.75;5114253;28;20420;-54
2022/11/30 06:42:36;;;;;;;1.83;1.60;;;;;;;9.91;100.00;95379.59;5115069;28;20427;-54
2022/11/30 06:45:05;;;;;;;0.33;0.30;;;;;;;10.04;100.00;95382.50;5114930;28;20423;-54
2022/11/30 06:47:33;;;;;;;0.90;0.90;;;;;;;10.00;100.00;95380.63;5114838;28;20555;-54
2022/11/30 06:50:02;;;;;;;0.40;0.40;;;;;;;10.07;100.00;95381.16;5114781;28;20436;-54
2022/11/30 06:52:31;;;;;;;0.60;0.40;;;;;;;10.10;100.00;95380.66;5114998;28;20461;-54
2022/11/30 06:55:00;;;;;;;0.60;0.60;;;;;;;10.18;100.00;95383.59;5114905;27;20446;-54
2022/11/30 06:57:29;;;;;;;1.50;1.40;;;;;;;9.98;100.00;95382.75;5114940;27;20424;-54
2022/11/30 06:59:58;;;;;;;1.50;1.50;;;;;;;9.67;100.00;95344.06;5114548;28;20447;-54
2022/11/30 07:02:26;;;;;;;1.20;1.20;;;;;;;9.75;100.00;95378.75;5114670;28;20427;-54
2022/11/30 07:04:54;;;;;;;3.10;0.90;;;;;;;9.72;100.00;95368.69;5114604;27;20428;-54
2022/11/30 07:07:23;;;;;;;0.60;0.60;;;;;;;9.51;100.00;95375.00;5114590;28;20505;-54
2022/11/30 07:09:51;;;;;;;0.70;0.70;;;;;;;9.47;100.00;95377.38;5114121;28;20423;-54
2022/11/30 07:12:21;;;;;;;0.87;0.87;;;;;;;9.69;100.00;95377.16;5113599;28;20438;-54
2022/11/30 07:14:52;;;;;;;2.60;0.90;;;;;;;9.84;100.00;95371.09;5113270;28;20486;-53
2022/11/30 07:17:21;;;;;;;1.07;0.70;;;;;;;9.88;100.00;95372.97;5113984;28;20424;-53
2022/11/30 07:19:49;;;;;;;0.40;0.30;;;;;;;10.13;100.00;95372.22;5113954;27;20508;-54
2022/11/30 07:22:17;;;;;;;0.70;0.70;;;;;;;10.49;100.00;95371.16;5114066;28;20435;-54
2022/11/30 07:27:33;;;;;;;0.33;0.27;;;;;;;9.94;100.00;95363.19;5113494;28;20471;-54
2022/11/30 07:30:01;;;;;;;0.60;0.60;;;;;;;9.67;100.00;95381.09;5113813;28;20446;-54
2022/11/30 07:32:29;;;;;;;1.33;1.17;;;;;;;9.55;100.00;95382.16;5113512;28;20919;-54
2022/11/30 07:34:57;;;;;;;7.17;1.40;;;;;;;9.30;100.00;95378.63;5113712;28;20592;-54
2022/11/30 07:37:26;;;;;;;2.20;1.70;;;;;;;9.41;100.00;95377.63;5113803;28;21057;-53
2022/11/30 07:39:54;;;;;;;0.30;0.20;;;;;;;9.59;100.00;95356.75;5113370;28;20505;-53
2022/11/30 07:42:23;;;;;;;0.53;0.53;;;;;;;10.07;100.00;95370.56;5113544;28;20413;-53
2022/11/30 07:44:52;;;;;;;0.80;0.80;;;;;;;10.15;100.00;95367.44;5113541;28;20428;-55
2022/11/30 07:47:25;;;;;;;2.13;2.03;;;;;;;9.98;100.00;95378.25;5113217;27;20474;-54
2022/11/30 07:49:54;;;;;;;1.30;1.03;;;;;;;9.75;100.00;95380.59;5113151;28;20476;-54
2022/11/30 07:52:22;;;;;;;0.90;0.90;;;;;;;9.83;100.00;95377.44;5113633;28;20462;-53
2022/11/30 07:54:50;;;;;;;1.60;1.50;;;;;;;10.06;100.00;95380.41;5113213;28;20428;-52
2022/11/30 07:57:18;;;;;;;1.57;1.57;;;;;;;9.87;100.00;95371.34;5113111;27;20509;-52
2022/11/30 07:59:47;;;;;;;1.70;1.27;;;;;;;9.58;100.00;95367.63;5112924;28;20427;-53
2022/11/30 08:02:17;;;;;;;1.03;0.93;;;;;;;8.94;100.00;95362.63;5113208;28;20448;-55
2022/11/30 08:04:46;;;;;;;2.30;1.77;;;;;;;9.06;100.00;95365.03;5113600;28;20489;-53
2022/11/30 08:07:14;;;;;;;5.47;1.50;;;;;;;9.41;100.00;95375.75;5113168;28;20420;-53
2022/11/30 08:09:43;;;;;;;0.50;0.50;;;;;;;9.91;100.00;95369.00;5113245;28;20971;-53
2022/11/30 08:12:12;;;;;;;0.83;0.83;;;;;;;10.20;100.00;95376.19;5112215;28;20423;-54
2022/11/30 08:14:40;;;;;;;0.60;0.60;;;;;;;10.37;100.00;95380.44;5113173;27;20428;-54
2022/11/30 08:17:30;;;;;;;0.67;0.50;;;;;;;10.43;100.00;95384.66;5112653;28;20451;-54
2022/11/30 08:19:58;;;;;;;0.70;0.57;;;;;;;10.56;100.00;95376.97;5112482;28;20531;-53
2022/11/30 08:22:26;;;;;;;1.27;1.17;;;;;;;10.71;100.00;95370.84;5112890;28;20428;-53
2022/11/30 08:24:55;;;;;;;2.53;1.23;;;;;;;10.38;100.00;95371.41;5112879;28;20578;-52
2022/11/30 08:27:23;;;;;;;1.00;1.00;;;;;;;10.34;100.00;95368.50;5112499;28;20472;-53
2022/11/30 08:29:52;;;;;;;1.60;1.60;;;;;;;9.96;100.00;95374.28;5112697;28;20483;-52
2022/11/30 08:32:20;;;;;;;0.60;0.60;;;;;;;9.69;100.00;95369.22;5112637;28;20421;-53
2022/11/30 08:34:49;;;;;;;0.40;0.40;;;;;;;10.05;100.00;95378.78;5112465;28;20539;-53
2022/11/30 08:37:18;;;;;;;1.00;0.63;;;;;;;9.62;100.00;95373.97;5112916;28;20822;-53
2022/11/30 08:39:46;;;;;;;0.40;0.40;;;;;;;10.05;100.00;95368.19;5112722;28;20471;-53
2022/11/30 08:42:14;;;;;;;0.40;0.30;;;;;;;10.17;100.00;95370.59;5112751;28;20420;-53
2022/11/30 08:44:43;;;;;;;0.40;0.30;;;;;;;9.74;100.00;95337.44;5112408;27;20451;-53
2022/11/30 08:47:11;;;;;;;14.63;0.77;;;;;;;9.52;100.00;95385.31;5112518;28;20486;-53
2022/11/30 08:49:39;;;;;;;0.53;0.50;;;;;;;9.72;100.00;95366.03;5112494;28;20499;-53
2022/11/30 08:52:09;;;;;;;0.60;0.30;;;;;;;9.86;100.00;95383.03;5112318;28;20443;-53
2022/11/30 08:54:47;;;;;;;1.07;1.07;;;;;;;10.06;100.00;95382.25;5112390;28;20484;-53
2022/11/30 08:57:17;;;;;;;0.40;0.30;;;;;;;10.30;100.00;95378.03;5112475;28;20416;-53
2022/11/30 08:59:46;;;;;;;1.50;0.93;;;;;;;10.23;100.00;95389.94;5112303;28;20972;-53
2022/11/30 09:02:17;;;;;;;0.80;0.67;;;;;;;9.88;100.00;95382.75;5111879;28;20928;-53
2022/11/30 09:04:49;;;;;;;2.53;1.50;;;;;;;9.79;100.00;95379.81;5112294;28;20840;-53
2022/11/30 09:07:19;;;;;;;0.77;0.77;;;;;;;9.62;100.00;95363.38;5112365;28;20442;-53
2022/11/30 09:09:48;;;;;;;0.60;0.50;;;;;;;9.75;100.00;95378.75;5112066;28;20544;-53
2022/11/30 09:12:16;;;;;;;0.40;0.30;;;;;;;9.81;100.00;95393.59;5112296;28;21064;-53
2022/11/30 09:14:45;;;;;;;0.40;0.40;;;;;;;9.96;100.00;95390.97;5111723;28;20531;-53
2022/11/30 09:17:19;;;;;;;0.30;0.30;;;;;;;9.74;100.00;95394.91;5112259;28;20435;-53
2022/11/30 09:19:47;;;;;;;0.40;0.30;;;;;;;9.70;100.00;95384.03;5111466;28;20475;-53
2022/11/30 09:22:17;;;;;;;0.40;0.40;;;;;;;9.59;100.00;95385.88;5112338;28;20426;-53
2022/11/30 09:24:46;;;;;;;1.13;1.13;;;;;;;9.81;100.00;95390.16;5111777;28;20927;-53
2022/11/30 09:27:15;;;;;;;0.80;0.57;;;;;;;9.77;100.00;95397.81;5111531;28;20424;-53
2022/11/30 09:29:43;;;;;;;0.30;0.20;;;;;;;9.52;100.00;95315.72;5112043;28;20476;-53
2022/11/30 09:32:11;;;;;;;4.00;0.47;;;;;;;10.26;100.00;95394.72;5112152;28;20815;-53
2022/11/30 09:34:40;;;;;;;0.30;0.20;;;;;;;10.17;100.00;95389.94;5111316;28;20442;-53
2022/11/30 09:37:08;;;;;;;2.70;0.83;;;;;;;9.91;100.00;95388.31;5111741;28;20424;-53
2022/11/30 09:39:36;;;;;;;0.70;0.70;;;;;;;9.74;100.00;95376.38;5111653;28;20455;-53
2022/11/30 09:42:28;;;;;;;0.50;0.50;;;;;;;9.19;100.00;95384.94;5112007;28;20427;-53
2022/11/30 09:45:06;;;;;;;1.37;1.33;;;;;;;9.06;100.00;95390.72;5111552;28;20439;-53
2022/11/30 09:48:04;;;;;;;0.93;0.93;;;;;;;9.34;100.00;95387.63;5111660;28;20439;-53
2022/11/30 09:50:38;;;;;;;0.87;0.63;;;;;;;9.71;100.00;95361.81;5094747;28;20488;-53
2022/11/30 09:53:11;;;;;;;0.60;0.57;;;;;;;9.98;100.00;95396.81;5111919;28;20800;-53
2022/11/30 09:55:42;;;;;;;1.40;1.07;;;;;;;9.94;100.00;95387.78;5111601;28;20778;-54
2022/11/30 09:58:25;;;;;;;0.90;0.90;;;;;;;9.82;100.00;95379.28;5111514;28;20433;-54
2022/11/30 10:00:53;;;;;;;1.17;1.17;;;;;;;9.76;100.00;95379.56;5111916;28;20423;-54
2022/11/30 10:03:23;;;;;;;0.73;0.70;;;;;;;9.78;100.00;95378.25;5111336;28;20428;-54
2022/11/30 10:05:59;;;;;;;0.50;0.50;;;;;;;9.37;100.00;95381.81;5111791;28;20760;-54
2022/11/30 10:08:40;;;;;;;1.53;1.53;;;;;;;9.71;100.00;95374.25;5111744;28;20470;-54
2022/11/30 10:11:34;;;;;;;1.50;1.47;;;;;;;9.62;100.00;95363.38;5111534;28;20517;-53
2022/11/30 10:14:21;;;;;;;1.90;0.80;;;;;;;9.32;100.00;95365.94;5111307;28;20446;-54
2022/11/30 10:17:01;;;;;;;0.50;0.50;;;;;;;9.26;100.00;95365.13;5111898;28;20432;-54
2022/11/30 10:19:49;;;;;;;0.70;0.60;;;;;;;9.42;100.00;95361.47;5111871;28;20535;-54
2022/11/30 10:22:27;;;;;;;0.37;0.30;;;;;;;9.27;100.00;95365.94;5111409;28;20527;-54
2022/11/30 10:25:06;;;;;;;0.90;0.90;;;;;;;9.02;100.00;95371.13;5111324;28;20423;-54
2022/11/30 10:27:48;;;;;;;1.13;0.73;;;;;;;9.34;100.00;95366.47;5110175;28;20844;-55
2022/11/30 10:30:21;;;;;;;0.30;0.30;;;;;;;9.22;100.00;95356.13;5110815;28;20479;-54
2022/11/30 10:32:52;;;;;;;0.40;0.37;;;;;;;8.88;100.00;95358.34;5111662;28;20743;-54
2022/11/30 10:35:29;;;;;;;1.10;0.63;;;;;;;8.83;100.00;95354.88;5112951;28;20436;-54
2022/11/30 10:38:00;;;;;;;0.30;0.30;;;;;;;8.46;100.00;95286.28;5114979;28;20900;-54
2022/11/30 10:40:36;;;;;;;1.53;1.20;;;;;;;8.77;100.00;95343.53;5114833;28;20511;-54
2022/11/30 10:43:15;;;;;;;0.83;0.83;;;;;;;8.87;100.00;95361.28;5114281;28;20452;-55
2022/11/30 10:45:48;;;;;;;0.67;0.67;;;;;;;8.73;100.00;95243.84;5115042;28;20437;-54
2022/11/30 10:48:21;;;;;;;0.30;0.30;;;;;;;9.46;100.00;95353.84;5114877;28;20428;-54
2022/11/30 10:50:51;;;;;;;0.70;0.70;;;;;;;9.54;100.00;95348.00;5113695;27;20507;-54
2022/11/30 10:53:20;;;;;;;0.30;0.20;;;;;;;9.52;100.00;95348.28;5114692;27;20938;-55
2022/11/30 10:55:59;;;;;;;0.40;0.33;;;;;;;8.50;100.00;95279.44;5114574;28;20817;-54
2022/11/30 10:58:31;;;;;;;0.30;0.30;;;;;;;9.04;100.00;95350.50;5114620;28;20498;-54
2022/11/30 11:01:05;;;;;;;0.67;0.67;;;;;;;9.00;100.00;95357.38;5114549;27;20435;-54
2022/11/30 11:03:34;;;;;;;0.93;0.40;;;;;;;8.77;100.00;95350.66;5114462;28;20432;-54
2022/11/30 11:06:13;;;;;;;4.97;0.83;;;;;;;8.87;100.00;95345.41;5113925;28;20428;-55
2022/11/30 11:08:44;;;;;;;0.30;0.30;;;;;;;9.14;100.00;95351.34;5114266;28;20428;-55
2022/11/30 11:11:28;;;;;;;2.30;0.70;;;;;;;9.43;100.00;95349.06;5114507;27;20825;-54
2022/11/30 11:14:14;;;;;;;0.30;0.20;;;;;;;9.36;100.00;95332.66;5114578;28;20436;-54
2022/11/30 11:16:57;;;;;;;0.40;0.30;;;;;;;9.49;100.00;95346.16;5114377;28;20435;-54
2022/11/30 11:19:36;;;;;;;0.40;0.40;;;;;;;9.50;100.00;95341.66;5114025;28;20534;-54
2022/11/30 11:22:14;;;;;;;0.40;0.30;;;;;;;9.30;100.00;95333.69;5114451;28;20445;-53
2022/11/30 11:24:43;;;;;;;0.40;0.30;;;;;;;9.34;100.00;95340.03;5114159;27;20435;-54
2022/11/30 11:27:24;;;;;;;3.50;0.53;;;;;;;9.46;100.00;95349.31;5113780;28;20435;-54
2022/11/30 11:30:02;;;;;;;0.30;0.20;;;;;;;9.54;100.00;95364.69;5113721;28;20495;-54
2022/11/30 11:32:32;;;;;;;0.40;0.30;;;;;;;9.63;100.00;95353.59;5113837;28;20435;-53
2022/11/30 11:35:01;;;;;;;0.50;0.50;;;;;;;9.42;100.00;95352.75;5113812;28;20952;-56
2022/11/30 11:37:32;;;;;;;0.30;0.30;;;;;;;9.01;100.00;95277.00;5113359;28;20426;-54
2022/11/30 11:40:15;;;;;;;0.50;0.30;;;;;;;9.20;100.00;95346.88;5113833;28;20868;-54
2022/11/30 11:42:47;;;;;;;0.63;0.63;;;;;;;9.28;100.00;95323.38;5113671;28;20432;-54
2022/11/30 11:45:18;;;;;;;0.60;0.60;;;;;;;9.50;100.00;95354.88;5113564;28;20430;-54
2022/11/30 11:47:59;;;;;;;0.40;0.40;;;;;;;9.25;100.00;95362.75;5112327;28;20485;-54
2022/11/30 11:50:30;;;;;;;0.80;0.80;;;;;;;9.12;100.00;95358.75;5113302;28;20478;-54
2022/11/30 11:53:23;;;;;;;0.60;0.60;;;;;;;9.20;100.00;95349.50;5113626;28;21149;-54